sensor_id;sensor_type;location;lat;lon;timestamp;P1;durP1;ratioP1;P2;durP2;ratioP2
39948;SDS011;29070;48.102;-1.652;2024-01-30T00:02:51;17.43;;;5.03;;
39948;SDS011;29070;48.102;-1.652;2024-01-30T00:07:51;12.68;;;4.65;;
39948;SDS011;29070;48.102;-1.652;2024-01-30T00:12:52;22.37;;;5.07;;
39948;SDS011;29070;48.102;-1.652;2024-01-30T00:17:52;16.30;;;5.05;;
39948;SDS011;29070;48.102;-1.652;2024-01-30T00:22:53;16.07;;;4.23;;
39948;SDS011;29070;48.102;-1.652;2024-01-30T00:27:53;13.32;;;4.75;;
39948;SDS011;29070;48.102;-1.652;2024-01-30T00:32:53;14.80;;;4.67;;
39948;SDS011;29070;48.102;-1.652;2024-01-30T00:37:54;12.90;;;5.20;;
39948;SDS011;29070;48.102;-1.652;2024-01-30T00:42:54;17.93;;;5.33;;
39948;SDS011;29070;48.102;-1.652;2024-01-30T00:47:55;16.53;;;5.27;;
39948;SDS011;29070;48.102;-1.652;2024-01-30T00:52:55;20.73;;;5.60;;
39948;SDS011;29070;48.102;-1.652;2024-01-30T00:57:55;17.47;;;5.10;;
39948;SDS011;29070;48.102;-1.652;2024-01-30T01:02:56;19.42;;;5.28;;
39948;SDS011;29070;48.102;-1.652;2024-01-30T01:07:56;23.80;;;5.80;;
39948;SDS011;29070;48.102;-1.652;2024-01-30T01:12:56;15.50;;;5.03;;
39948;SDS011;29070;48.102;-1.652;2024-01-30T01:17:57;8.67;;;4.53;;
39948;SDS011;29070;48.102;-1.652;2024-01-30T01:22:57;11.57;;;4.57;;
39948;SDS011;29070;48.102;-1.652;2024-01-30T01:27:57;11.80;;;4.87;;
39948;SDS011;29070;48.102;-1.652;2024-01-30T01:32:58;16.57;;;5.17;;
39948;SDS011;29070;48.102;-1.652;2024-01-30T01:38:01;13.15;;;4.65;;
39948;SDS011;29070;48.102;-1.652;2024-01-30T01:43:03;15.93;;;5.05;;
39948;SDS011;29070;48.102;-1.652;2024-01-30T01:48:04;16.23;;;5.32;;
39948;SDS011;29070;48.102;-1.652;2024-01-30T01:53:05;10.98;;;3.97;;
39948;SDS011;29070;48.102;-1.652;2024-01-30T01:58:07;15.07;;;4.35;;
39948;SDS011;29070;48.102;-1.652;2024-01-30T02:03:10;11.88;;;3.47;;
39948;SDS011;29070;48.102;-1.652;2024-01-30T02:08:12;8.40;;;3.30;;
39948;SDS011;29070;48.102;-1.652;2024-01-30T02:13:12;10.32;;;2.72;;
39948;SDS011;29070;48.102;-1.652;2024-01-30T02:18:12;11.20;;;2.47;;
39948;SDS011;29070;48.102;-1.652;2024-01-30T02:23:13;9.30;;;2.63;;
39948;SDS011;29070;48.102;-1.652;2024-01-30T02:28:15;9.35;;;1.90;;
39948;SDS011;29070;48.102;-1.652;2024-01-30T02:33:16;5.53;;;1.47;;
39948;SDS011;29070;48.102;-1.652;2024-01-30T02:38:16;7.03;;;1.67;;
39948;SDS011;29070;48.102;-1.652;2024-01-30T02:43:16;7.13;;;1.70;;
39948;SDS011;29070;48.102;-1.652;2024-01-30T02:48:17;4.33;;;1.33;;
39948;SDS011;29070;48.102;-1.652;2024-01-30T02:53:17;1.67;;;0.83;;
39948;SDS011;29070;48.102;-1.652;2024-01-30T02:58:17;3.80;;;0.90;;
39948;SDS011;29070;48.102;-1.652;2024-01-30T03:03:18;1.85;;;0.52;;
39948;SDS011;29070;48.102;-1.652;2024-01-30T03:08:18;2.57;;;0.70;;
39948;SDS011;29070;48.102;-1.652;2024-01-30T03:13:19;2.00;;;0.60;;
39948;SDS011;29070;48.102;-1.652;2024-01-30T03:18:20;3.13;;;0.60;;
39948;SDS011;29070;48.102;-1.652;2024-01-30T03:23:21;2.28;;;0.70;;
39948;SDS011;29070;48.102;-1.652;2024-01-30T03:28:21;4.43;;;0.70;;
39948;SDS011;29070;48.102;-1.652;2024-01-30T03:33:21;3.50;;;1.00;;
39948;SDS011;29070;48.102;-1.652;2024-01-30T03:38:21;2.77;;;0.40;;
39948;SDS011;29070;48.102;-1.652;2024-01-30T03:43:22;6.20;;;0.60;;
39948;SDS011;29070;48.102;-1.652;2024-01-30T03:48:22;1.07;;;0.40;;
39948;SDS011;29070;48.102;-1.652;2024-01-30T03:53:22;1.37;;;0.30;;
39948;SDS011;29070;48.102;-1.652;2024-01-30T03:58:23;0.87;;;0.30;;
39948;SDS011;29070;48.102;-1.652;2024-01-30T04:03:23;2.33;;;0.40;;
39948;SDS011;29070;48.102;-1.652;2024-01-30T04:08:24;3.90;;;0.90;;
39948;SDS011;29070;48.102;-1.652;2024-01-30T04:13:24;2.43;;;0.40;;
39948;SDS011;29070;48.102;-1.652;2024-01-30T04:18:25;1.63;;;0.40;;
39948;SDS011;29070;48.102;-1.652;2024-01-30T04:23:25;1.93;;;0.53;;
39948;SDS011;29070;48.102;-1.652;2024-01-30T04:28:25;1.40;;;0.40;;
39948;SDS011;29070;48.102;-1.652;2024-01-30T04:33:26;1.03;;;0.30;;
39948;SDS011;29070;48.102;-1.652;2024-01-30T04:38:26;2.70;;;0.40;;
39948;SDS011;29070;48.102;-1.652;2024-01-30T04:43:26;1.27;;;0.32;;
39948;SDS011;29070;48.102;-1.652;2024-01-30T04:48:27;2.30;;;0.30;;
39948;SDS011;29070;48.102;-1.652;2024-01-30T04:53:29;3.10;;;0.40;;
39948;SDS011;29070;48.102;-1.652;2024-01-30T04:58:30;1.48;;;0.43;;
39948;SDS011;29070;48.102;-1.652;2024-01-30T05:03:32;0.80;;;0.30;;
39948;SDS011;29070;48.102;-1.652;2024-01-30T05:08:34;0.68;;;0.30;;
39948;SDS011;29070;48.102;-1.652;2024-01-30T05:13:36;0.85;;;0.40;;
39948;SDS011;29070;48.102;-1.652;2024-01-30T05:18:36;1.10;;;0.30;;
39948;SDS011;29070;48.102;-1.652;2024-01-30T05:23:37;0.53;;;0.30;;
39948;SDS011;29070;48.102;-1.652;2024-01-30T05:28:37;0.63;;;0.27;;
39948;SDS011;29070;48.102;-1.652;2024-01-30T05:33:37;0.60;;;0.40;;
39948;SDS011;29070;48.102;-1.652;2024-01-30T05:38:38;0.28;;;0.10;;
39948;SDS011;29070;48.102;-1.652;2024-01-30T05:43:39;0.73;;;0.25;;
39948;SDS011;29070;48.102;-1.652;2024-01-30T05:48:39;0.33;;;0.20;;
39948;SDS011;29070;48.102;-1.652;2024-01-30T05:53:39;0.50;;;0.30;;
39948;SDS011;29070;48.102;-1.652;2024-01-30T05:58:40;0.30;;;0.17;;
39948;SDS011;29070;48.102;-1.652;2024-01-30T06:03:40;0.57;;;0.20;;
39948;SDS011;29070;48.102;-1.652;2024-01-30T06:08:40;1.63;;;0.40;;
39948;SDS011;29070;48.102;-1.652;2024-01-30T06:13:40;0.53;;;0.13;;
39948;SDS011;29070;48.102;-1.652;2024-01-30T06:18:41;0.50;;;0.20;;
39948;SDS011;29070;48.102;-1.652;2024-01-30T06:23:41;1.42;;;0.50;;
39948;SDS011;29070;48.102;-1.652;2024-01-30T06:28:41;1.73;;;0.30;;
39948;SDS011;29070;48.102;-1.652;2024-01-30T06:33:42;0.83;;;0.40;;
39948;SDS011;29070;48.102;-1.652;2024-01-30T06:38:42;1.40;;;0.30;;
39948;SDS011;29070;48.102;-1.652;2024-01-30T06:43:42;0.60;;;0.30;;
39948;SDS011;29070;48.102;-1.652;2024-01-30T06:48:45;2.67;;;0.70;;
39948;SDS011;29070;48.102;-1.652;2024-01-30T06:53:45;3.85;;;1.02;;
39948;SDS011;29070;48.102;-1.652;2024-01-30T06:58:46;1.73;;;0.63;;
39948;SDS011;29070;48.102;-1.652;2024-01-30T07:03:50;1.67;;;0.70;;
39948;SDS011;29070;48.102;-1.652;2024-01-30T07:08:50;1.30;;;0.60;;
39948;SDS011;29070;48.102;-1.652;2024-01-30T07:13:51;2.43;;;0.70;;
39948;SDS011;29070;48.102;-1.652;2024-01-30T07:18:51;2.03;;;0.90;;
39948;SDS011;29070;48.102;-1.652;2024-01-30T07:23:51;1.30;;;0.60;;
39948;SDS011;29070;48.102;-1.652;2024-01-30T07:28:52;2.28;;;0.57;;
39948;SDS011;29070;48.102;-1.652;2024-01-30T07:33:52;2.03;;;0.88;;
39948;SDS011;29070;48.102;-1.652;2024-01-30T07:38:53;1.30;;;0.52;;
39948;SDS011;29070;48.102;-1.652;2024-01-30T07:43:54;2.05;;;0.60;;
39948;SDS011;29070;48.102;-1.652;2024-01-30T07:48:55;3.10;;;0.80;;
39948;SDS011;29070;48.102;-1.652;2024-01-30T07:53:56;4.30;;;1.05;;
39948;SDS011;29070;48.102;-1.652;2024-01-30T07:58:57;2.80;;;1.30;;
39948;SDS011;29070;48.102;-1.652;2024-01-30T08:03:58;5.30;;;0.93;;
39948;SDS011;29070;48.102;-1.652;2024-01-30T08:08:58;1.77;;;0.90;;
39948;SDS011;29070;48.102;-1.652;2024-01-30T08:13:59;3.53;;;0.80;;
39948;SDS011;29070;48.102;-1.652;2024-01-30T08:18:59;4.37;;;1.03;;
39948;SDS011;29070;48.102;-1.652;2024-01-30T08:24:01;2.55;;;0.90;;
39948;SDS011;29070;48.102;-1.652;2024-01-30T08:29:02;3.03;;;1.30;;
39948;SDS011;29070;48.102;-1.652;2024-01-30T08:34:03;2.93;;;0.80;;
39948;SDS011;29070;48.102;-1.652;2024-01-30T08:39:03;2.40;;;0.77;;
39948;SDS011;29070;48.102;-1.652;2024-01-30T08:44:05;4.90;;;0.90;;
39948;SDS011;29070;48.102;-1.652;2024-01-30T08:49:05;3.43;;;1.00;;
39948;SDS011;29070;48.102;-1.652;2024-01-30T08:54:06;2.60;;;0.93;;
39948;SDS011;29070;48.102;-1.652;2024-01-30T08:59:06;3.03;;;0.63;;
39948;SDS011;29070;48.102;-1.652;2024-01-30T09:04:06;9.03;;;1.13;;
39948;SDS011;29070;48.102;-1.652;2024-01-30T09:09:07;2.80;;;0.87;;
39948;SDS011;29070;48.102;-1.652;2024-01-30T09:14:07;3.53;;;1.30;;
39948;SDS011;29070;48.102;-1.652;2024-01-30T09:19:07;2.27;;;0.80;;
39948;SDS011;29070;48.102;-1.652;2024-01-30T09:24:08;5.72;;;1.00;;
39948;SDS011;29070;48.102;-1.652;2024-01-30T09:29:09;1.15;;;0.65;;
39948;SDS011;29070;48.102;-1.652;2024-01-30T09:34:09;3.67;;;0.60;;
39948;SDS011;29070;48.102;-1.652;2024-01-30T09:39:09;3.70;;;0.63;;
39948;SDS011;29070;48.102;-1.652;2024-01-30T09:44:09;1.10;;;0.60;;
39948;SDS011;29070;48.102;-1.652;2024-01-30T09:49:12;1.92;;;0.52;;
39948;SDS011;29070;48.102;-1.652;2024-01-30T09:54:14;1.10;;;0.43;;
39948;SDS011;29070;48.102;-1.652;2024-01-30T09:59:15;3.88;;;0.80;;
39948;SDS011;29070;48.102;-1.652;2024-01-30T10:04:15;1.60;;;0.40;;
39948;SDS011;29070;48.102;-1.652;2024-01-30T10:09:16;1.27;;;0.70;;
39948;SDS011;29070;48.102;-1.652;2024-01-30T10:14:16;4.20;;;0.60;;
39948;SDS011;29070;48.102;-1.652;2024-01-30T10:19:16;1.70;;;0.60;;
39948;SDS011;29070;48.102;-1.652;2024-01-30T10:24:17;1.30;;;0.53;;
39948;SDS011;29070;48.102;-1.652;2024-01-30T10:29:17;3.77;;;0.67;;
39948;SDS011;29070;48.102;-1.652;2024-01-30T10:34:17;1.77;;;0.60;;
39948;SDS011;29070;48.102;-1.652;2024-01-30T10:39:18;1.50;;;0.55;;
39948;SDS011;29070;48.102;-1.652;2024-01-30T10:44:21;0.52;;;0.32;;
39948;SDS011;29070;48.102;-1.652;2024-01-30T10:49:22;0.60;;;0.30;;
39948;SDS011;29070;48.102;-1.652;2024-01-30T10:54:24;3.15;;;0.57;;
39948;SDS011;29070;48.102;-1.652;2024-01-30T10:59:25;3.33;;;0.70;;
39948;SDS011;29070;48.102;-1.652;2024-01-30T11:04:25;2.80;;;0.52;;
39948;SDS011;29070;48.102;-1.652;2024-01-30T11:09:26;1.13;;;0.50;;
39948;SDS011;29070;48.102;-1.652;2024-01-30T11:14:29;2.00;;;0.40;;
39948;SDS011;29070;48.102;-1.652;2024-01-30T11:19:31;1.70;;;0.45;;
39948;SDS011;29070;48.102;-1.652;2024-01-30T11:24:36;2.92;;;0.30;;
39948;SDS011;29070;48.102;-1.652;2024-01-30T11:29:39;0.80;;;0.35;;
39948;SDS011;29070;48.102;-1.652;2024-01-30T11:34:40;1.77;;;0.77;;
39948;SDS011;29070;48.102;-1.652;2024-01-30T11:39:41;1.48;;;0.65;;
39948;SDS011;29070;48.102;-1.652;2024-01-30T11:44:46;1.92;;;0.30;;
39948;SDS011;29070;48.102;-1.652;2024-01-30T11:49:47;1.98;;;0.57;;
39948;SDS011;29070;48.102;-1.652;2024-01-30T11:54:48;0.93;;;0.30;;
39948;SDS011;29070;48.102;-1.652;2024-01-30T11:59:49;0.43;;;0.30;;
39948;SDS011;29070;48.102;-1.652;2024-01-30T12:04:49;2.53;;;0.37;;
39948;SDS011;29070;48.102;-1.652;2024-01-30T12:09:53;1.13;;;0.50;;
39948;SDS011;29070;48.102;-1.652;2024-01-30T12:14:56;5.38;;;0.80;;
39948;SDS011;29070;48.102;-1.652;2024-01-30T12:20:03;1.40;;;0.65;;
39948;SDS011;29070;48.102;-1.652;2024-01-30T12:25:11;1.42;;;0.38;;
39948;SDS011;29070;48.102;-1.652;2024-01-30T12:30:15;0.70;;;0.30;;
39948;SDS011;29070;48.102;-1.652;2024-01-30T12:35:17;1.50;;;0.30;;
39948;SDS011;29070;48.102;-1.652;2024-01-30T12:40:19;1.95;;;0.22;;
39948;SDS011;29070;48.102;-1.652;2024-01-30T12:45:19;2.33;;;0.22;;
39948;SDS011;29070;48.102;-1.652;2024-01-30T12:50:22;0.50;;;0.30;;
39948;SDS011;29070;48.102;-1.652;2024-01-30T12:55:23;1.20;;;0.50;;
39948;SDS011;29070;48.102;-1.652;2024-01-30T13:00:24;1.02;;;0.50;;
39948;SDS011;29070;48.102;-1.652;2024-01-30T13:05:25;0.87;;;0.30;;
39948;SDS011;29070;48.102;-1.652;2024-01-30T13:10:25;0.88;;;0.20;;
39948;SDS011;29070;48.102;-1.652;2024-01-30T13:15:25;0.40;;;0.10;;
39948;SDS011;29070;48.102;-1.652;2024-01-30T13:20:26;0.87;;;0.40;;
39948;SDS011;29070;48.102;-1.652;2024-01-30T13:25:26;0.57;;;0.20;;
39948;SDS011;29070;48.102;-1.652;2024-01-30T13:30:26;2.00;;;0.43;;
39948;SDS011;29070;48.102;-1.652;2024-01-30T13:35:27;0.17;;;0.10;;
39948;SDS011;29070;48.102;-1.652;2024-01-30T13:40:27;1.10;;;0.17;;
39948;SDS011;29070;48.102;-1.652;2024-01-30T13:45:27;1.20;;;0.17;;
39948;SDS011;29070;48.102;-1.652;2024-01-30T13:50:28;0.95;;;0.30;;
39948;SDS011;29070;48.102;-1.652;2024-01-30T13:55:29;0.20;;;0.10;;
39948;SDS011;29070;48.102;-1.652;2024-01-30T14:00:29;2.90;;;0.23;;
39948;SDS011;29070;48.102;-1.652;2024-01-30T14:05:30;3.13;;;0.30;;
39948;SDS011;29070;48.102;-1.652;2024-01-30T14:10:30;0.60;;;0.20;;
39948;SDS011;29070;48.102;-1.652;2024-01-30T14:15:31;1.08;;;0.32;;
39948;SDS011;29070;48.102;-1.652;2024-01-30T14:20:31;1.30;;;0.30;;
39948;SDS011;29070;48.102;-1.652;2024-01-30T14:25:31;1.58;;;0.40;;
39948;SDS011;29070;48.102;-1.652;2024-01-30T14:30:32;1.70;;;0.20;;
39948;SDS011;29070;48.102;-1.652;2024-01-30T14:35:32;0.30;;;0.10;;
39948;SDS011;29070;48.102;-1.652;2024-01-30T14:40:33;0.52;;;0.20;;
39948;SDS011;29070;48.102;-1.652;2024-01-30T14:45:34;0.77;;;0.37;;
39948;SDS011;29070;48.102;-1.652;2024-01-30T14:50:34;0.17;;;0.10;;
39948;SDS011;29070;48.102;-1.652;2024-01-30T14:55:34;0.13;;;0.10;;
39948;SDS011;29070;48.102;-1.652;2024-01-30T15:00:35;1.43;;;0.47;;
39948;SDS011;29070;48.102;-1.652;2024-01-30T15:05:38;2.38;;;0.35;;
39948;SDS011;29070;48.102;-1.652;2024-01-30T15:10:38;0.50;;;0.33;;
39948;SDS011;29070;48.102;-1.652;2024-01-30T15:15:39;1.10;;;0.23;;
39948;SDS011;29070;48.102;-1.652;2024-01-30T15:20:39;1.10;;;0.50;;
39948;SDS011;29070;48.102;-1.652;2024-01-30T15:25:39;0.67;;;0.30;;
39948;SDS011;29070;48.102;-1.652;2024-01-30T15:30:40;0.80;;;0.40;;
39948;SDS011;29070;48.102;-1.652;2024-01-30T15:35:44;1.38;;;0.50;;
39948;SDS011;29070;48.102;-1.652;2024-01-30T15:40:44;3.47;;;0.60;;
39948;SDS011;29070;48.102;-1.652;2024-01-30T15:45:44;1.27;;;0.70;;
39948;SDS011;29070;48.102;-1.652;2024-01-30T15:50:45;0.80;;;0.30;;
39948;SDS011;29070;48.102;-1.652;2024-01-30T15:55:45;0.63;;;0.30;;
39948;SDS011;29070;48.102;-1.652;2024-01-30T16:00:46;3.13;;;0.57;;
39948;SDS011;29070;48.102;-1.652;2024-01-30T16:05:46;4.67;;;0.50;;
39948;SDS011;29070;48.102;-1.652;2024-01-30T16:10:46;2.03;;;0.50;;
39948;SDS011;29070;48.102;-1.652;2024-01-30T16:15:47;2.53;;;0.35;;
39948;SDS011;29070;48.102;-1.652;2024-01-30T16:20:47;0.77;;;0.40;;
39948;SDS011;29070;48.102;-1.652;2024-01-30T16:25:48;1.70;;;0.50;;
39948;SDS011;29070;48.102;-1.652;2024-01-30T16:30:48;4.38;;;0.30;;
39948;SDS011;29070;48.102;-1.652;2024-01-30T16:35:48;2.80;;;0.40;;
39948;SDS011;29070;48.102;-1.652;2024-01-30T16:40:49;1.77;;;0.50;;
39948;SDS011;29070;48.102;-1.652;2024-01-30T16:45:51;2.15;;;0.47;;
39948;SDS011;29070;48.102;-1.652;2024-01-30T16:50:51;1.67;;;0.40;;
39948;SDS011;29070;48.102;-1.652;2024-01-30T16:55:52;0.97;;;0.40;;
39948;SDS011;29070;48.102;-1.652;2024-01-30T17:00:52;3.70;;;0.80;;
39948;SDS011;29070;48.102;-1.652;2024-01-30T17:05:52;5.23;;;2.50;;
39948;SDS011;29070;48.102;-1.652;2024-01-30T17:10:55;7.75;;;2.22;;
39948;SDS011;29070;48.102;-1.652;2024-01-30T17:15:55;21.93;;;9.40;;
39948;SDS011;29070;48.102;-1.652;2024-01-30T17:20:57;19.38;;;6.72;;
39948;SDS011;29070;48.102;-1.652;2024-01-30T17:25:57;11.77;;;4.20;;
39948;SDS011;29070;48.102;-1.652;2024-01-30T17:30:59;4.43;;;2.22;;
39948;SDS011;29070;48.102;-1.652;2024-01-30T17:35:59;12.10;;;5.80;;
39948;SDS011;29070;48.102;-1.652;2024-01-30T17:41:00;9.93;;;4.97;;
39948;SDS011;29070;48.102;-1.652;2024-01-30T17:46:00;7.43;;;3.72;;
39948;SDS011;29070;48.102;-1.652;2024-01-30T17:51:02;5.67;;;2.67;;
39948;SDS011;29070;48.102;-1.652;2024-01-30T17:56:02;10.65;;;2.63;;
39948;SDS011;29070;48.102;-1.652;2024-01-30T18:01:06;4.63;;;1.92;;
39948;SDS011;29070;48.102;-1.652;2024-01-30T18:06:07;6.38;;;3.20;;
39948;SDS011;29070;48.102;-1.652;2024-01-30T18:11:07;12.53;;;3.70;;
39948;SDS011;29070;48.102;-1.652;2024-01-30T18:16:07;15.67;;;4.70;;
39948;SDS011;29070;48.102;-1.652;2024-01-30T18:21:08;13.93;;;5.67;;
39948;SDS011;29070;48.102;-1.652;2024-01-30T18:26:08;11.55;;;4.82;;
39948;SDS011;29070;48.102;-1.652;2024-01-30T18:31:09;9.23;;;4.43;;
39948;SDS011;29070;48.102;-1.652;2024-01-30T18:36:09;12.82;;;4.43;;
39948;SDS011;29070;48.102;-1.652;2024-01-30T18:41:09;13.90;;;4.72;;
39948;SDS011;29070;48.102;-1.652;2024-01-30T18:46:10;12.90;;;4.33;;
39948;SDS011;29070;48.102;-1.652;2024-01-30T18:51:13;7.45;;;3.58;;
39948;SDS011;29070;48.102;-1.652;2024-01-30T18:56:16;10.13;;;3.72;;
39948;SDS011;29070;48.102;-1.652;2024-01-30T19:01:17;12.35;;;4.78;;
39948;SDS011;29070;48.102;-1.652;2024-01-30T19:06:19;14.27;;;5.40;;
39948;SDS011;29070;48.102;-1.652;2024-01-30T19:11:19;15.48;;;5.95;;
39948;SDS011;29070;48.102;-1.652;2024-01-30T19:16:20;13.55;;;5.70;;
39948;SDS011;29070;48.102;-1.652;2024-01-30T19:21:20;11.50;;;5.93;;
39948;SDS011;29070;48.102;-1.652;2024-01-30T19:26:21;14.07;;;6.38;;
39948;SDS011;29070;48.102;-1.652;2024-01-30T19:31:22;19.87;;;8.07;;
39948;SDS011;29070;48.102;-1.652;2024-01-30T19:36:22;23.95;;;7.70;;
39948;SDS011;29070;48.102;-1.652;2024-01-30T19:41:23;16.93;;;8.33;;
39948;SDS011;29070;48.102;-1.652;2024-01-30T19:46:23;16.43;;;7.33;;
39948;SDS011;29070;48.102;-1.652;2024-01-30T19:51:23;21.20;;;8.13;;
39948;SDS011;29070;48.102;-1.652;2024-01-30T19:56:24;17.10;;;7.93;;
39948;SDS011;29070;48.102;-1.652;2024-01-30T20:01:24;21.90;;;7.77;;
39948;SDS011;29070;48.102;-1.652;2024-01-30T20:06:24;17.85;;;7.63;;
39948;SDS011;29070;48.102;-1.652;2024-01-30T20:11:25;13.67;;;6.87;;
39948;SDS011;29070;48.102;-1.652;2024-01-30T20:16:25;15.18;;;7.65;;
39948;SDS011;29070;48.102;-1.652;2024-01-30T20:21:44;15.60;;;7.38;;
39948;SDS011;29070;48.102;-1.652;2024-01-30T20:26:47;18.40;;;7.07;;
39948;SDS011;29070;48.102;-1.652;2024-01-30T20:31:47;16.60;;;8.37;;
39948;SDS011;29070;48.102;-1.652;2024-01-30T20:36:47;15.93;;;7.33;;
39948;SDS011;29070;48.102;-1.652;2024-01-30T20:41:48;20.50;;;7.95;;
39948;SDS011;29070;48.102;-1.652;2024-01-30T20:46:48;16.25;;;8.07;;
39948;SDS011;29070;48.102;-1.652;2024-01-30T20:51:49;14.90;;;7.40;;
39948;SDS011;29070;48.102;-1.652;2024-01-30T20:56:50;20.17;;;8.60;;
39948;SDS011;29070;48.102;-1.652;2024-01-30T21:01:50;13.77;;;7.40;;
39948;SDS011;29070;48.102;-1.652;2024-01-30T21:06:51;16.10;;;6.90;;
39948;SDS011;29070;48.102;-1.652;2024-01-30T21:11:51;22.15;;;7.90;;
39948;SDS011;29070;48.102;-1.652;2024-01-30T21:16:51;33.85;;;13.32;;
39948;SDS011;29070;48.102;-1.652;2024-01-30T21:21:52;20.07;;;10.17;;
39948;SDS011;29070;48.102;-1.652;2024-01-30T21:26:52;26.20;;;10.27;;
39948;SDS011;29070;48.102;-1.652;2024-01-30T21:31:52;20.13;;;7.57;;
39948;SDS011;29070;48.102;-1.652;2024-01-30T21:36:53;16.00;;;8.17;;
39948;SDS011;29070;48.102;-1.652;2024-01-30T21:41:53;16.57;;;7.33;;
39948;SDS011;29070;48.102;-1.652;2024-01-30T21:46:54;16.80;;;7.35;;
39948;SDS011;29070;48.102;-1.652;2024-01-30T21:51:54;17.65;;;8.23;;
39948;SDS011;29070;48.102;-1.652;2024-01-30T21:56:55;12.57;;;7.57;;
39948;SDS011;29070;48.102;-1.652;2024-01-30T22:01:55;17.95;;;8.23;;
39948;SDS011;29070;48.102;-1.652;2024-01-30T22:06:55;18.65;;;8.68;;
39948;SDS011;29070;48.102;-1.652;2024-01-30T22:11:56;18.63;;;8.93;;
39948;SDS011;29070;48.102;-1.652;2024-01-30T22:16:56;16.37;;;8.67;;
39948;SDS011;29070;48.102;-1.652;2024-01-30T22:21:57;16.97;;;8.20;;
39948;SDS011;29070;48.102;-1.652;2024-01-30T22:26:57;20.40;;;8.98;;
39948;SDS011;29070;48.102;-1.652;2024-01-30T22:31:57;15.63;;;7.60;;
39948;SDS011;29070;48.102;-1.652;2024-01-30T22:36:59;15.77;;;7.68;;
39948;SDS011;29070;48.102;-1.652;2024-01-30T22:41:59;14.87;;;6.97;;
39948;SDS011;29070;48.102;-1.652;2024-01-30T22:46:59;14.97;;;6.77;;
39948;SDS011;29070;48.102;-1.652;2024-01-30T22:52:00;11.37;;;6.40;;
39948;SDS011;29070;48.102;-1.652;2024-01-30T22:57:00;13.13;;;6.43;;
39948;SDS011;29070;48.102;-1.652;2024-01-30T23:02:00;13.00;;;6.10;;
39948;SDS011;29070;48.102;-1.652;2024-01-30T23:07:01;12.95;;;6.85;;
39948;SDS011;29070;48.102;-1.652;2024-01-30T23:12:01;15.70;;;6.87;;
39948;SDS011;29070;48.102;-1.652;2024-01-30T23:17:02;16.20;;;7.43;;
39948;SDS011;29070;48.102;-1.652;2024-01-30T23:22:02;18.77;;;7.60;;
39948;SDS011;29070;48.102;-1.652;2024-01-30T23:27:03;16.20;;;7.00;;
39948;SDS011;29070;48.102;-1.652;2024-01-30T23:32:05;15.30;;;6.85;;
39948;SDS011;29070;48.102;-1.652;2024-01-30T23:37:05;13.23;;;6.85;;
39948;SDS011;29070;48.102;-1.652;2024-01-30T23:42:05;12.77;;;6.33;;
39948;SDS011;29070;48.102;-1.652;2024-01-30T23:47:06;15.10;;;6.63;;
39948;SDS011;29070;48.102;-1.652;2024-01-30T23:52:07;17.35;;;7.32;;
39948;SDS011;29070;48.102;-1.652;2024-01-30T23:57:08;11.93;;;6.93;;
